createdAt,value
2023-05-25T00:02:25.918Z,97731.22
2023-05-25T00:12:32.947Z,97735.94
2023-05-25T00:22:39.904Z,97734.09
2023-05-25T00:32:46.458Z,97744.72
2023-05-25T00:42:53.995Z,97757.41
2023-05-25T00:53:00.560Z,97735.75
2023-05-25T01:03:13.174Z,97741.81
2023-05-25T01:13:21.505Z,97750.88
2023-05-25T01:23:32.825Z,97753.06
2023-05-25T01:33:39.942Z,97763.03
2023-05-25T01:43:47.276Z,97785.38
2023-05-25T01:54:02.257Z,97776.50
2023-05-25T02:04:09.035Z,97778.91
2023-05-25T02:14:15.661Z,97797.75
2023-05-25T02:24:26.176Z,97775.13
2023-05-25T02:34:31.772Z,97774.44
2023-05-25T02:44:38.274Z,97766.94
2023-05-25T02:54:44.831Z,97784.00
2023-05-25T03:04:55.010Z,97789.34
2023-05-25T03:15:01.569Z,97799.63
2023-05-25T03:25:08.771Z,97808.69
2023-05-25T03:35:15.307Z,97802.41
2023-05-25T03:45:22.263Z,97822.75
2023-05-25T03:55:29.710Z,97816.78
2023-05-25T04:05:36.459Z,97825.38
2023-05-25T04:15:43.255Z,97822.00
2023-05-25T04:25:52.572Z,97848.34
2023-05-25T04:36:02.087Z,97851.53
2023-05-25T04:46:09.668Z,97831.44
2023-05-25T04:56:18.088Z,97856.81
2023-05-25T05:06:27.057Z,97851.16
2023-05-25T05:16:36.298Z,97862.53
2023-05-25T05:26:56.251Z,97869.97
2023-05-25T05:37:04.554Z,97889.19
2023-05-25T05:47:11.039Z,97890.56
2023-05-25T05:57:17.493Z,97903.56
2023-05-25T06:07:23.965Z,97917.03
2023-05-25T06:17:31.250Z,97939.03
2023-05-25T06:27:38.044Z,97941.44
2023-05-25T06:37:44.551Z,97948.69
2023-05-25T06:47:51.132Z,97944.13
2023-05-25T06:57:57.738Z,97942.50
2023-05-25T07:08:04.254Z,97962.53
2023-05-25T07:18:13.682Z,97951.69
2023-05-25T07:28:20.166Z,97964.09
2023-05-25T07:38:26.807Z,97978.00
2023-05-25T07:48:33.258Z,97989.75
2023-05-25T07:58:39.863Z,97992.28
2023-05-25T08:08:46.717Z,98015.19
2023-05-25T08:18:53.874Z,97991.63
2023-05-25T08:29:00.440Z,98014.47
2023-05-25T08:39:09.350Z,97989.31
2023-05-25T08:49:16.759Z,98017.22
2023-05-25T08:59:27.955Z,98000.28
2023-05-25T09:09:36.575Z,97997.59
2023-05-25T09:19:43.416Z,98019.16
2023-05-25T09:29:53.327Z,98021.84
2023-05-25T09:39:59.895Z,98002.28
2023-05-25T09:50:07.040Z,98019.66
2023-05-25T10:00:14.254Z,98032.38
2023-05-25T10:10:22.004Z,98030.25
2023-05-25T10:20:30.489Z,98057.19
2023-05-25T10:30:38.417Z,98060.06
2023-05-25T10:40:46.109Z,98088.25
2023-05-25T10:50:53.110Z,98090.78
2023-05-25T11:01:09.989Z,98108.19
2023-05-25T11:11:17.205Z,98141.06
2023-05-25T11:21:43.774Z,98139.63
2023-05-25T11:31:57.428Z,98142.81
2023-05-25T11:42:06.076Z,98185.53
2023-05-25T11:52:15.776Z,98135.00
2023-05-25T12:02:23.576Z,98148.81
2023-05-25T12:12:30.152Z,98135.94
2023-05-25T12:22:36.886Z,98129.53
2023-05-25T12:33:02.405Z,98140.19
2023-05-25T12:43:10.375Z,98128.19
2023-05-25T12:53:17.029Z,98106.91
2023-05-25T13:03:23.907Z,98136.19
2023-05-25T13:13:30.376Z,98160.06
2023-05-25T13:23:37.094Z,98197.94
2023-05-25T13:33:43.637Z,98187.53
2023-05-25T13:43:50.214Z,98162.66
2023-05-25T13:53:57.062Z,98114.22
2023-05-25T14:04:03.748Z,98144.44
2023-05-25T14:14:23.191Z,98151.03
2023-05-25T14:24:37.005Z,98132.44
2023-05-25T14:34:43.797Z,98140.56
2023-05-25T14:44:50.314Z,98130.47
2023-05-25T14:54:57.237Z,98118.94
2023-05-25T15:05:03.799Z,98130.09
2023-05-25T15:15:10.891Z,98140.94
2023-05-25T15:25:24.560Z,98119.37
2023-05-25T15:35:38.054Z,98094.66
2023-05-25T15:45:44.872Z,98098.66
2023-05-25T15:55:51.779Z,98086.47
2023-05-25T16:05:58.516Z,98094.72
2023-05-25T16:16:05.049Z,98119.75
2023-05-25T16:26:11.605Z,98085.22
2023-05-25T16:36:18.552Z,98072.06
2023-05-25T16:46:26.923Z,98064.81
2023-05-25T16:56:33.496Z,98047.09
2023-05-25T17:06:40.027Z,98065.56
2023-05-25T17:16:46.612Z,98054.78
2023-05-25T17:26:53.185Z,98056.34
2023-05-25T17:36:59.816Z,98058.53
2023-05-25T17:47:09.180Z,98056.47
2023-05-25T17:57:17.492Z,98069.12
2023-05-25T18:07:24.097Z,98034.53
2023-05-25T18:17:30.639Z,98040.97
2023-05-25T18:27:35.637Z,98052.78
2023-05-25T18:37:42.621Z,98038.97
2023-05-25T18:47:49.144Z,98006.22
2023-05-25T18:57:55.682Z,98016.28
2023-05-25T19:08:02.357Z,98001.88
2023-05-25T19:18:09.116Z,98000.16
2023-05-25T19:28:15.720Z,97987.03
2023-05-25T19:38:24.680Z,97956.16
2023-05-25T19:48:33.206Z,97862.62
2023-05-25T19:58:39.700Z,97862.38
2023-05-25T20:08:46.337Z,97879.53
2023-05-25T20:18:52.931Z,97861.28
2023-05-25T20:28:59.412Z,97854.38
2023-05-25T20:39:05.935Z,97816.78
2023-05-25T20:49:12.495Z,97826.97
2023-05-25T20:59:19.100Z,97837.75
2023-05-25T21:09:25.746Z,97839.62
2023-05-25T21:19:32.452Z,97833.34
2023-05-25T21:29:38.946Z,97834.69
2023-05-25T21:39:45.553Z,97846.81
2023-05-25T21:49:52.228Z,97837.34
2023-05-25T21:59:58.725Z,97842.34
2023-05-25T22:10:05.331Z,97822.50
2023-05-25T22:20:12.619Z,97809.41
2023-05-25T22:30:19.144Z,97820.56
2023-05-25T22:40:25.716Z,97813.34
2023-05-25T22:50:32.229Z,97831.41
2023-05-25T23:00:38.828Z,97812.13
2023-05-25T23:10:45.395Z,97807.78
2023-05-25T23:20:52.076Z,97807.97
2023-05-25T23:30:58.573Z,97802.28
2023-05-25T23:41:05.127Z,97803.06
2023-05-25T23:51:12.096Z,97794.34
